Tuesday, November 21, 2017, 10:51 AM EST
Back to Local

KPEO, Penn Yan Airport

Location: Penn Yan, NY, United States Lat: 42.65
Local Time: 10:51 AM EST (15:51 GMT) Lon: -77.05
Time Zone: US/Eastern Elev: 977 ft

Show me the last for .
Show Decoded

2017-11-21 09:53 METAR KPEO 211453Z AUTO 19016G26KT 10SM CLR 08/M08 A2982 RMK AO2 PK WND
                 20028/1443 SLP103 T00781078 58014 =
2017-11-21 08:53 METAR KPEO 211353Z AUTO 20018G28KT 10SM CLR 06/M07 A2984 RMK AO2 PK WND
                 20028/1353 SLP111 T00611072 =
2017-11-21 07:53 METAR KPEO 211253Z AUTO 20019G25KT 10SM CLR 05/M07 A2985 RMK AO2 SLP115
                 T00501067 =
2017-11-21 06:53 METAR KPEO 211153Z AUTO 20015G21KT 10SM CLR 04/M06 A2986 RMK AO2 SLP118
                 T00441056 10044 20039 58009 $ =
2017-11-21 05:53 METAR KPEO 211053Z AUTO 20014G22KT 10SM CLR 04/M06 A2987 RMK AO2 SLP120
                 T00441056 $ =
2017-11-21 04:53 METAR KPEO 210953Z AUTO 21010G19KT 10SM CLR 04/M05 A2988 RMK AO2 SLP125
                 T00391050 $ =
2017-11-21 03:53 METAR KPEO 210853Z AUTO 20015G23KT 10SM CLR 04/M06 A2989 RMK AO2 SLP127
                 T00441061 58003 $ =
2017-11-21 02:53 METAR KPEO 210753Z AUTO 20017G24KT 10SM CLR 04/M06 A2990 RMK AO2 SLP132
                 T00441056 $ =
2017-11-21 01:53 METAR KPEO 210653Z AUTO 20015G21KT 10SM CLR 04/M05 A2990 RMK AO2 PK WND
                 22026/0613 SLP133 T00391050 $ =
2017-11-21 00:53 METAR KPEO 210553Z AUTO 21018KT 10SM CLR 04/M05 A2990 RMK AO2 PK WND 21029/0514
                 SLP131 T00441050 10044 20033 56010 $ =
2017-11-20 23:53 METAR KPEO 210453Z AUTO 20018G25KT 10SM CLR 04/M05 A2990 RMK AO2 PK WND
                 21026/0410 SLP133 T00391050 400561017 $ =
2017-11-20 22:53 METAR KPEO 210353Z AUTO 21017G25KT 10SM CLR 04/M04 A2991 RMK AO2 PK WND
                 21029/0338 SLP136 T00391044 =
2017-11-20 21:53 METAR KPEO 210253Z AUTO 21014G22KT 10SM CLR 04/M04 A2993 RMK AO2 SLP142
                 T00391044 56011 =
2017-11-20 20:53 METAR KPEO 210153Z AUTO 22014G22KT 10SM CLR 04/M04 A2993 RMK AO2 SLP144
                 T00391044 =
2017-11-20 19:53 METAR KPEO 210053Z AUTO 22009KT 10SM CLR 04/M04 A2995 RMK AO2 SLP150 T00391044 =
2017-11-20 18:53 METAR KPEO 202353Z AUTO 22007KT 10SM CLR 04/M04 A2996 RMK AO2 SLP153 60000
                 T00391039 10056 20017 50002 =
2017-11-20 17:53 METAR KPEO 202253Z AUTO 22006KT 10SM CLR 04/M04 A2997 RMK AO2 SLP157 T00391039 =
2017-11-20 16:53 METAR KPEO 202153Z AUTO 21006KT 10SM CLR 04/M04 A2997 RMK AO2 SLP156 T00441039 =
2017-11-20 15:53 METAR KPEO 202053Z AUTO 24010KT 10SM FEW037 FEW080 05/M03 A2995 RMK AO2 SLP151
                 60000 T00501033 55001 =
2017-11-20 14:53 METAR KPEO 201953Z AUTO 25007KT 10SM OVC031 04/M02 A2994 RMK AO2 SLP147
                 T00441022 =
2017-11-20 13:53 METAR KPEO 201853Z AUTO 23013G17KT 10SM OVC025 03/M02 A2994 RMK AO2 SNE33 SLP147
                 P0000 T00331022 =
2017-11-20 12:53 METAR KPEO 201753Z AUTO 25007KT 6SM -SN OVC023 02/M03 A2995 RMK AO2
                 SNB1657E17B45 SLP153 P0000 60000 T00171033 10017 21006 58009 =
2017-11-20 11:53 METAR KPEO 201653Z AUTO 25009G17KT 9SM OVC025 02/M04 A2996 RMK AO2 SNE1556
                 SLP156 P0000 T00171039 =
2017-11-20 10:53 METAR KPEO 201553Z AUTO 24011KT 7SM -SN OVC029 02/M04 A2998 RMK AO2 SNB10E17B44
                 SLP161 P0000 T00171044 =

Support USWX by starting your Amazon purchase here.